Pala Temecula (TM1) Station Data

Red Flag Warning: No
Fire Weather Zone: 250
SDGE Region: North East
Lat/Lon: 33.419/-117.082

Observations

Time Wind Speed/Gust Temp(F) RH Fuel Moist Fuel Temp(F) Dewpt(F) Tmax(F) Tmin(F) Accum Precip 10-min Precip SL Press(mb)
3/29 8:00am 349 10 G 14 50° 54% - - 34° 56.4° 45.2° - - 875.0
3/29 7:50am 354 9 G 15 48° 59% - - 35° 56.4° 45.2° - - 877.0
3/29 7:40am 349 9 G 16 47° 62% - - 35° 56.4° 45.2° - - 878.0
3/29 7:30am 346 11 G 15 47° 62% - - 35° 56.4° 45.2° - - 878.0
3/29 7:20am 340 11 G 16 47° 61% - - 34° 56.4° 45.2° - - 877.0
3/29 7:10am 325 10 G 15 47° 59% - - 34° 56.4° 45.2° - - 877.0
3/29 7:00am 352 9 G 15 47° 61% - - 34° 56.4° 45.2° - - 878.0
3/29 6:50am 348 10 G 15 46° 65% - - 35° 56.4° 45.2° - - 879.0
3/29 6:40am 348 11 G 16 46° 67% - - 35° 56.4° 45.2° - - 879.0
3/29 6:30am 345 12 G 18 46° 67% - - 35° 56.4° 45.2° - - 879.0
3/29 6:20am 347 10 G 15 45° 67% - - 35° 56.4° 45.2° - - 879.0
3/29 6:10am 357 11 G 15 46° 66% - - 35° 56.4° 45.2° - - 879.0
3/29 6:00am 353 11 G 15 46° 64% - - 34° 56.4° 45.2° - - 878.0
3/29 5:50am 353 11 G 17 46° 62% - - 33° 56.4° 45.3° - - 877.0
3/29 5:40am 353 12 G 18 47° 57% - - 32° 56.4° 46.1° - - 875.0
3/29 5:30am 351 12 G 18 47° 54% - - 32° 56.4° 46.6° - - 875.0
3/29 5:20am 357 13 G 19 48° 54% - - 32° 56.4° 46.6° - - 875.0
3/29 5:10am 350 10 G 17 47° 58% - - 33° 56.4° 46.6° - - 876.0
3/29 5:00am 347 10 G 17 48° 57% - - 33° 56.4° 46.8° - - 876.0
3/29 4:50am 346 11 G 16 48° 58% - - 34° 56.4° 46.8° - - 876.0
3/29 4:40am 347 10 G 16 48° 57% - - 34° 56.4° 46.8° - - 876.0
3/29 4:30am 347 10 G 15 49° 58% - - 35° 56.4° 46.8° - - 877.0
3/29 4:20am 344 11 G 17 49° 59% - - 36° 56.4° 46.8° - - 877.0
3/29 4:10am 347 10 G 16 49° 59% - - 35° 56.4° 46.8° - - 877.0
3/29 4:00am 346 10 G 15 48° 58% - - 34° 56.4° 46.8° - - 876.0
3/29 3:50am 353 9 G 15 48° 57% - - 33° 56.4° 46.8° - - 876.0
3/29 3:40am 356 11 G 16 47° 59% - - 34° 56.4° 46.8° - - 877.0
3/29 3:30am 355 12 G 17 47° 60% - - 34° 56.4° 46.8° - - 877.0
3/29 3:20am 0 11 G 17 47° 62% - - 35° 56.4° 46.8° - - 878.0
3/29 3:10am 360 11 G 17 48° 60% - - 35° 56.4° 47.4° - - 877.0
3/29 3:00am 5 8 G 14 52° 51% - - 34° 56.4° 49.9° - - 874.0
3/29 2:50am 340 9 G 13 53° 49% - - 34° 56.4° 50.3° - - 874.0
3/29 2:40am 331 10 G 12 52° 52% - - 35° 56.4° 50.3° - - 875.0
3/29 2:30am 340 10 G 12 51° 56% - - 36° 56.4° 50.3° - - 877.0
3/29 2:20am 340 10 G 13 51° 58% - - 36° 56.4° 50.3° - - 877.0
3/29 2:10am 348 10 G 14 51° 56% - - 36° 56.4° 50.3° - - 877.0
3/29 2:00am 341 10 G 14 51° 56% - - 36° 56.4° 50.6° - - 876.0
3/29 1:50am 336 9 G 13 51° 56% - - 36° 56.4° 50.6° - - 877.0
3/29 1:40am 338 10 G 15 52° 54% - - 36° 56.4° 50.8° - - 876.0
3/29 1:30am 334 9 G 12 52° 54% - - 36° 56.4° 51.3° - - 876.0
3/29 1:20am 347 9 G 13 52° 53% - - 36° 56.4° 51.3° - - 876.0
3/29 1:10am 348 6 G 12 52° 54% - - 36° 56.4° 51.3° - - 876.0
3/29 1:00am 331 7 G 9 52° 55% - - 36° 56.4° 51.3° - - 877.0
3/29 12:50am 329 6 G 9 53° 53% - - 36° 56.4° 51.3° - - 876.0
3/29 12:40am 337 3 G 6 55° 49% - - 36° 56.4° 53° - - 874.0
3/29 12:30am 329 4 G 5 55° 50% - - 36° 55.8° 53° - - 875.0
3/29 12:20am 329 5 G 6 54° 51% - - 36° 55.8° 53° - - 875.0
3/29 12:10am 333 3 G 5 54° 50% - - 36° 55.8° 53° - - 875.0
3/29 12:00am 324 3 G 6 56° 48% - - 36° 75.2° 42.5° - - 874.0
3/28 11:50pm 295 4 G 6 55° 49% - - 36° 75.2° 42.5° - - 875.0
3/28 11:40pm 302 3 G 6 55° 48% - - 36° 75.2° 42.5° - - 874.0
3/28 11:30pm 350 2 G 4 56° 47% - - 36° 75.2° 42.5° - - 874.0
3/28 11:20pm 317 3 G 5 56° 46% - - 36° 75.2° 42.5° - - 874.0
3/28 11:10pm 336 2 G 3 57° 44% - - 36° 75.2° 42.5° - - 874.0
3/28 11:00pm 306 3 G 4 58° 44% - - 36° 75.2° 42.5° - - 873.0
3/28 10:50pm 309 3 G 4 57° 45% - - 36° 75.2° 42.5° - - 874.0
3/28 10:40pm 330 3 G 5 56° 46% - - 36° 75.2° 42.5° - - 874.0
3/28 10:30pm 329 4 G 5 56° 46% - - 36° 75.2° 42.5° - - 874.0
3/28 10:20pm 333 4 G 6 56° 46% - - 36° 75.2° 42.5° - - 874.0
3/28 10:10pm 333 4 G 6 57° 44% - - 35° 75.2° 42.5° - - 873.0
3/28 10:00pm 334 2 G 4 58° 42% - - 35° 75.2° 42.5° - - 873.0
3/28 9:50pm 321 1 G 2 58° 42% - - 35° 75.2° 42.5° - - 873.0
3/28 9:40pm 127 1 G 3 58° 42% - - 35° 75.2° 42.5° - - 873.0
3/28 9:30pm 158 3 G 4 58° 43% - - 35° 75.2° 42.5° - - 873.0
3/28 9:20pm 153 4 G 6 58° 43% - - 35° 75.2° 42.5° - - 874.0
3/28 9:10pm 162 5 G 7 57° 44% - - 35° 75.2° 42.5° - - 874.0
3/28 9:00pm 173 4 G 6 57° 44% - - 35° 75.2° 42.5° - - 874.0
3/28 8:50pm 174 4 G 9 58° 43% - - 36° 75.2° 42.5° - - 874.0
3/28 8:40pm 156 6 G 9 58° 42% - - 35° 75.2° 42.5° - - 873.0
3/28 8:30pm 154 6 G 9 59° 41% - - 35° 75.2° 42.5° - - 873.0
3/28 8:20pm 148 7 G 11 59° 41% - - 36° 75.2° 42.5° - - 874.0
3/28 8:10pm 158 5 G 9 59° 44% - - 37° 75.2° 42.5° - - 875.0
3/28 8:00pm 165 5 G 8 60° 42% - - 37° 75.2° 42.5° - - 874.0
3/28 7:50pm 146 6 G 10 60° 42% - - 37° 75.2° 42.5° - - 874.0
3/28 7:40pm 156 6 G 9 60° 46% - - 39° 75.2° 42.5° - - 876.0
3/28 7:30pm 159 6 G 8 60° 46% - - 39° 75.2° 42.5° - - 876.0
3/28 7:20pm 153 6 G 9 61° 46% - - 40° 75.2° 42.5° - - 876.0
3/28 7:10pm 156 6 G 9 61° 46% - - 40° 75.2° 42.5° - - 877.0
3/28 7:00pm 163 5 G 8 61° 46% - - 40° 75.2° 42.5° - - 877.0
3/28 6:50pm 167 4 G 8 62° 45% - - 40° 75.2° 42.5° - - 877.0
3/28 6:40pm 176 4 G 8 62° 45% - - 41° 75.2° 42.5° - - 877.0
3/28 6:30pm 169 5 G 11 63° 43% - - 41° 75.2° 42.5° - - 877.0
3/28 6:20pm 174 3 G 7 66° 39% - - 41° 75.2° 42.5° - - 877.0
3/28 6:10pm 160 5 G 9 67° 38% - - 40° 75.2° 42.5° - - 877.0
3/28 6:00pm 161 4 G 9 68° 37% - - 41° 75.2° 42.5° - - 877.0
3/28 5:50pm 153 5 G 8 67° 38% - - 41° 75.2° 42.5° - - 877.0
3/28 5:40pm 149 5 G 10 67° 37% - - 40° 75.2° 42.5° - - 877.0
3/28 5:30pm 150 5 G 11 68° 35% - - 40° 75.2° 42.5° - - 877.0
3/28 5:20pm 166 6 G 12 69° 34% - - 39° 75.2° 42.5° - - 877.0
3/28 5:10pm 153 6 G 11 69° 35% - - 40° 75.2° 42.5° - - 878.0
3/28 5:00pm 163 7 G 13 69° 34% - - 40° 75.2° 42.5° - - 878.0
3/28 4:50pm 146 7 G 12 68° 35% - - 39° 75.2° 42.5° - - 878.0
3/28 4:40pm 143 8 G 17 69° 34% - - 39° 75.2° 42.5° - - 879.0
3/28 4:30pm 153 7 G 16 71° 32% - - 40° 75.2° 42.5° - - 879.0
3/28 4:20pm 194 5 G 11 71° 32% - - 40° 75.2° 42.5° - - 879.0
3/28 4:10pm 209 8 G 16 71° 33% - - 40° 75.2° 42.5° - - 879.0
3/28 4:00pm 205 9 G 15 72° 32% - - 41° 75.2° 42.5° - - 880.0
3/28 3:50pm 186 7 G 12 73° 32% - - 42° 75.2° 42.5° - - 880.0
3/28 3:40pm 166 6 G 14 74° 31% - - 42° 75.2° 42.5° - - 880.0
3/28 3:30pm 157 5 G 15 74° 31% - - 41° 75.2° 42.5° - - 880.0
3/28 3:20pm 144 6 G 12 73° 33% - - 42° 75.2° 42.5° - - 880.0
3/28 3:10pm 142 3 G 10 74° 31% - - 41° 75.2° 42.5° - - 880.0
3/28 3:00pm 198 5 G 12 74° 31% - - 41° 75.2° 42.5° - - 879.0
3/28 2:50pm 298 4 G 9 74° 16% - - 24° 75° 42.5° - - 873.0
3/28 2:40pm 328 6 G 12 73° 14% - - 22° 74° 42.5° - - 873.0
3/28 2:30pm 359 4 G 9 73° 15% - - 23° 74° 42.5° - - 872.0
3/28 2:20pm 6 5 G 9 73° 16% - - 24° 73.7° 42.5° - - 872.0
3/28 2:10pm 8 4 G 9 73° 16% - - 24° 73.7° 42.5° - - 872.0
3/28 2:00pm 7 4 G 12 73° 16% - - 24° 73.7° 42.5° - - 872.0
3/28 1:50pm 15 6 G 10 73° 17% - - 25° 73.2° 42.5° - - 873.0
3/28 1:40pm 4 5 G 10 72° 17% - - 25° 72.8° 42.5° - - 873.0
3/28 1:30pm 14 6 G 11 71° 17% - - 24° 72° 42.5° - - 873.0
3/28 1:20pm 355 6 G 11 70° 17% - - 24° 72° 42.5° - - 873.0
3/28 1:10pm 0 6 G 11 71° 18% - - 25° 72° 42.5° - - 873.0
3/28 1:00pm 2 5 G 10 71° 18% - - 26° 72° 42.5° - - 873.0
3/28 12:50pm 22 4 G 9 71° 19% - - 27° 72° 42.5° - - 873.0
3/28 12:40pm 344 5 G 11 70° 19% - - 26° 70.7° 42.5° - - 873.0
3/28 12:30pm 15 5 G 12 70° 19% - - 26° 70.2° 42.5° - - 873.0
3/28 12:20pm 359 7 G 12 69° 20% - - 26° 69.2° 42.5° - - 873.0
3/28 12:10pm 21 6 G 13 68° 21% - - 27° 69.1° 42.5° - - 873.0
3/28 12:00pm 34 5 G 8 68° 22% - - 27° 68.7° 42.5° - - 873.0
3/28 11:50am 354 5 G 10 67° 22% - - 27° 67.3° 42.5° - - 873.0
3/28 11:40am 307 5 G 9 66° 23% - - 27° 66.9° 42.5° - - 873.0
3/28 11:30am 310 6 G 10 66° 24% - - 28° 66.5° 42.5° - - 873.0
3/28 11:20am 332 6 G 12 65° 24% - - 28° 66.3° 42.5° - - 873.0
3/28 11:10am 312 7 G 12 65° 25% - - 28° 66.3° 42.5° - - 873.0
3/28 11:00am 11 5 G 11 65° 25% - - 29° 65.8° 42.5° - - 872.0
3/28 10:50am 9 6 G 11 64° 26% - - 29° 65.6° 42.5° - - 872.0
3/28 10:40am 351 8 G 14 63° 27% - - 28° 63.6° 42.5° - - 872.0
3/28 10:30am 350 8 G 13 63° 29% - - 30° 63.6° 42.5° - - 872.0
3/28 10:20am 347 7 G 14 62° 33% - - 33° 63.1° 42.5° - - 874.0
3/28 10:10am 334 6 G 11 62° 37% - - 35° 62.7° 42.5° - - 875.0
3/28 10:00am 349 8 G 14 61° 38% - - 35° 61.3° 42.5° - - 875.0
3/28 9:50am 333 9 G 13 60° 43% - - 37° 60.5° 42.5° - - 876.0
3/28 9:40am 329 8 G 13 59° 44% - - 37° 59.5° 42.5° - - 876.0
3/28 9:30am 348 8 G 13 58° 45% - - 37° 58.9° 42.5° - - 876.0
3/28 9:20am 350 8 G 12 57° 48% - - 37° 57.6° 42.5° - - 876.0
3/28 9:10am 346 7 G 11 56° 52% - - 38° 56.5° 42.5° - - 877.0
3/28 9:00am 350 10 G 15 53° 56% - - 38° 54.4° 42.5° - - 878.0
3/28 8:50am 351 10 G 13 52° 59% - - 38° 53° 42.5° - - 879.0
3/28 8:40am 344 9 G 12 51° 61% - - 38° 52° 42.5° - - 879.0
3/28 8:30am 340 10 G 14 50° 64% - - 39° 51.6° 42.5° - - 880.0
3/28 8:20am 345 10 G 14 48° 70% - - 39° 51.6° 42.5° - - 882.0
3/28 8:10am 349 11 G 16 47° 73% - - 39° 51.6° 42.5° - - 883.0
3/28 8:00am 347 11 G 15 46° 74% - - 38° 51.6° 42.5° - - 883.0
3/28 7:50am 342 12 G 15 45° 76% - - 38° 51.6° 42.5° - - 884.0
3/28 7:40am 347 10 G 15 45° 78% - - 39° 51.6° 42.5° - - 884.0
3/28 7:30am 344 10 G 13 45° 76% - - 38° 51.6° 42.5° - - 884.0
3/28 7:20am 344 9 G 12 45° 78% - - 38° 51.6° 42.5° - - 884.0
3/28 7:10am 335 10 G 12 46° 77% - - 39° 51.6° 42.5° - - 885.0
3/28 7:00am 332 10 G 13 45° 100% - - 45° 51.6° 42.5° - - 917.0
3/28 6:50am 342 11 G 15 44° 100% - - 44° 51.6° 42.5° - - 921.0
3/28 6:40am 344 12 G 16 44° 100% - - 44° 51.6° 42.5° - - 921.0
3/28 6:30am 342 12 G 16 43° 100% - - 43° 51.6° 42.5° - - 920.0
3/28 6:20am 351 11 G 17 43° 100% - - 43° 51.6° 42.5° - - 920.0
3/28 6:10am 350 9 G 15 43° 100% - - 43° 51.6° 42.5° - - 920.0
3/28 6:00am 349 9 G 14 43° 100% - - 43° 51.6° 42.5° - - 921.0